sensor_id;sensor_type;location;lat;lon;timestamp;P1;durP1;ratioP1;P2;durP2;ratioP2
86084;SDS011;76694;53.530;50.016;2024-03-02T00:01:33;4.90;;;2.92;;
86084;SDS011;76694;53.530;50.016;2024-03-02T00:06:35;8.85;;;3.20;;
86084;SDS011;76694;53.530;50.016;2024-03-02T00:11:39;5.88;;;3.03;;
86084;SDS011;76694;53.530;50.016;2024-03-02T00:16:42;4.43;;;2.97;;
86084;SDS011;76694;53.530;50.016;2024-03-02T00:21:45;5.18;;;3.28;;
86084;SDS011;76694;53.530;50.016;2024-03-02T00:26:47;1.88;;;1.48;;
86084;SDS011;76694;53.530;50.016;2024-03-02T00:31:50;4.20;;;2.25;;
86084;SDS011;76694;53.530;50.016;2024-03-02T00:36:53;4.03;;;1.63;;
86084;SDS011;76694;53.530;50.016;2024-03-02T00:41:59;6.07;;;3.60;;
86084;SDS011;76694;53.530;50.016;2024-03-02T00:47:01;7.82;;;1.35;;
86084;SDS011;76694;53.530;50.016;2024-03-02T00:52:05;2.40;;;2.20;;
86084;SDS011;76694;53.530;50.016;2024-03-02T00:57:10;3.85;;;2.88;;
86084;SDS011;76694;53.530;50.016;2024-03-02T01:02:14;6.32;;;2.72;;
86084;SDS011;76694;53.530;50.016;2024-03-02T01:07:17;1.20;;;1.10;;
86084;SDS011;76694;53.530;50.016;2024-03-02T01:12:20;4.85;;;2.33;;
86084;SDS011;76694;53.530;50.016;2024-03-02T01:17:22;7.93;;;2.58;;
86084;SDS011;76694;53.530;50.016;2024-03-02T01:22:25;6.40;;;3.72;;
86084;SDS011;76694;53.530;50.016;2024-03-02T01:27:27;2.53;;;1.63;;
86084;SDS011;76694;53.530;50.016;2024-03-02T01:32:30;2.17;;;1.77;;
86084;SDS011;76694;53.530;50.016;2024-03-02T01:37:33;1.52;;;1.35;;
86084;SDS011;76694;53.530;50.016;2024-03-02T01:42:38;1.67;;;1.10;;
86084;SDS011;76694;53.530;50.016;2024-03-02T01:47:41;2.40;;;1.15;;
86084;SDS011;76694;53.530;50.016;2024-03-02T01:52:43;6.78;;;3.33;;
86084;SDS011;76694;53.530;50.016;2024-03-02T01:57:46;6.55;;;1.50;;
86084;SDS011;76694;53.530;50.016;2024-03-02T02:02:50;3.10;;;1.65;;
86084;SDS011;76694;53.530;50.016;2024-03-02T02:07:53;2.72;;;1.90;;
86084;SDS011;76694;53.530;50.016;2024-03-02T02:12:56;6.38;;;2.50;;
86084;SDS011;76694;53.530;50.016;2024-03-02T02:17:58;5.72;;;2.40;;
86084;SDS011;76694;53.530;50.016;2024-03-02T02:23:02;4.55;;;2.08;;
86084;SDS011;76694;53.530;50.016;2024-03-02T02:28:07;10.05;;;2.05;;
86084;SDS011;76694;53.530;50.016;2024-03-02T02:33:10;1.35;;;1.25;;
86084;SDS011;76694;53.530;50.016;2024-03-02T02:38:12;4.30;;;2.92;;
86084;SDS011;76694;53.530;50.016;2024-03-02T02:43:15;3.40;;;1.30;;
86084;SDS011;76694;53.530;50.016;2024-03-02T02:48:18;8.60;;;3.03;;
86084;SDS011;76694;53.530;50.016;2024-03-02T02:53:21;1.38;;;1.27;;
86084;SDS011;76694;53.530;50.016;2024-03-02T02:58:23;3.33;;;1.10;;
86084;SDS011;76694;53.530;50.016;2024-03-02T03:03:26;1.50;;;1.33;;
86084;SDS011;76694;53.530;50.016;2024-03-02T03:08:28;2.35;;;1.65;;
86084;SDS011;76694;53.530;50.016;2024-03-02T03:13:31;7.35;;;3.08;;
86084;SDS011;76694;53.530;50.016;2024-03-02T03:18:34;12.38;;;1.60;;
86084;SDS011;76694;53.530;50.016;2024-03-02T03:23:37;3.53;;;1.65;;
86084;SDS011;76694;53.530;50.016;2024-03-02T03:28:39;1.83;;;1.60;;
86084;SDS011;76694;53.530;50.016;2024-03-02T03:33:42;5.53;;;2.80;;
86084;SDS011;76694;53.530;50.016;2024-03-02T03:38:46;2.97;;;1.65;;
86084;SDS011;76694;53.530;50.016;2024-03-02T03:43:48;1.85;;;1.20;;
86084;SDS011;76694;53.530;50.016;2024-03-02T03:48:51;1.40;;;0.90;;
86084;SDS011;76694;53.530;50.016;2024-03-02T03:53:56;0.52;;;0.52;;
86084;SDS011;76694;53.530;50.016;2024-03-02T03:58:59;3.20;;;2.42;;
86084;SDS011;76694;53.530;50.016;2024-03-02T04:04:01;7.90;;;3.35;;
86084;SDS011;76694;53.530;50.016;2024-03-02T04:09:05;2.85;;;1.08;;
86084;SDS011;76694;53.530;50.016;2024-03-02T04:14:08;1.25;;;1.15;;
86084;SDS011;76694;53.530;50.016;2024-03-02T04:19:10;0.70;;;0.70;;
86084;SDS011;76694;53.530;50.016;2024-03-02T04:24:13;3.55;;;1.05;;
86084;SDS011;76694;53.530;50.016;2024-03-02T04:29:15;0.90;;;0.88;;
86084;SDS011;76694;53.530;50.016;2024-03-02T04:34:18;1.90;;;1.67;;
86084;SDS011;76694;53.530;50.016;2024-03-02T04:39:20;2.60;;;2.42;;
86084;SDS011;76694;53.530;50.016;2024-03-02T04:44:23;1.85;;;1.38;;
86084;SDS011;76694;53.530;50.016;2024-03-02T04:49:26;1.95;;;1.70;;
86084;SDS011;76694;53.530;50.016;2024-03-02T04:54:28;3.17;;;1.63;;
86084;SDS011;76694;53.530;50.016;2024-03-02T04:59:31;4.50;;;2.50;;
86084;SDS011;76694;53.530;50.016;2024-03-02T05:04:33;2.42;;;2.15;;
86084;SDS011;76694;53.530;50.016;2024-03-02T05:09:36;1.98;;;1.60;;
86084;SDS011;76694;53.530;50.016;2024-03-02T05:14:39;3.33;;;1.52;;
86084;SDS011;76694;53.530;50.016;2024-03-02T05:19:42;9.63;;;3.20;;
86084;SDS011;76694;53.530;50.016;2024-03-02T05:24:44;4.60;;;2.20;;
86084;SDS011;76694;53.530;50.016;2024-03-02T05:29:47;3.90;;;2.13;;
86084;SDS011;76694;53.530;50.016;2024-03-02T05:34:50;5.00;;;2.42;;
86084;SDS011;76694;53.530;50.016;2024-03-02T05:39:53;7.55;;;3.25;;
86084;SDS011;76694;53.530;50.016;2024-03-02T05:44:56;2.00;;;1.73;;
86084;SDS011;76694;53.530;50.016;2024-03-02T05:49:58;1.63;;;1.52;;
86084;SDS011;76694;53.530;50.016;2024-03-02T05:55:01;4.78;;;2.20;;
86084;SDS011;76694;53.530;50.016;2024-03-02T06:00:04;6.25;;;4.13;;
86084;SDS011;76694;53.530;50.016;2024-03-02T06:05:09;11.23;;;2.47;;
86084;SDS011;76694;53.530;50.016;2024-03-02T06:10:12;6.80;;;2.63;;
86084;SDS011;76694;53.530;50.016;2024-03-02T06:15:15;8.60;;;3.78;;
86084;SDS011;76694;53.530;50.016;2024-03-02T06:20:18;9.35;;;2.90;;
86084;SDS011;76694;53.530;50.016;2024-03-02T06:25:21;7.65;;;3.63;;
86084;SDS011;76694;53.530;50.016;2024-03-02T06:30:24;9.05;;;2.80;;
86084;SDS011;76694;53.530;50.016;2024-03-02T06:35:26;7.97;;;3.42;;
86084;SDS011;76694;53.530;50.016;2024-03-02T06:40:29;8.65;;;4.00;;
86084;SDS011;76694;53.530;50.016;2024-03-02T06:45:32;12.68;;;5.28;;
86084;SDS011;76694;53.530;50.016;2024-03-02T06:50:36;14.68;;;5.20;;
86084;SDS011;76694;53.530;50.016;2024-03-02T06:55:39;13.50;;;4.97;;
86084;SDS011;76694;53.530;50.016;2024-03-02T07:00:42;9.10;;;4.85;;
86084;SDS011;76694;53.530;50.016;2024-03-02T07:05:46;7.80;;;2.97;;
86084;SDS011;76694;53.530;50.016;2024-03-02T07:10:50;13.15;;;3.63;;
86084;SDS011;76694;53.530;50.016;2024-03-02T07:15:53;9.10;;;3.53;;
86084;SDS011;76694;53.530;50.016;2024-03-02T07:21:06;4.18;;;2.75;;
86084;SDS011;76694;53.530;50.016;2024-03-02T07:26:10;10.30;;;3.55;;
86084;SDS011;76694;53.530;50.016;2024-03-02T07:31:14;13.65;;;5.55;;
86084;SDS011;76694;53.530;50.016;2024-03-02T07:36:18;5.72;;;3.05;;
86084;SDS011;76694;53.530;50.016;2024-03-02T07:41:22;9.15;;;3.88;;
86084;SDS011;76694;53.530;50.016;2024-03-02T07:46:24;8.68;;;4.88;;
86084;SDS011;76694;53.530;50.016;2024-03-02T07:51:28;6.70;;;2.55;;
86084;SDS011;76694;53.530;50.016;2024-03-02T07:56:30;18.90;;;3.90;;
86084;SDS011;76694;53.530;50.016;2024-03-02T08:01:33;12.18;;;5.38;;
86084;SDS011;76694;53.530;50.016;2024-03-02T08:06:36;13.35;;;6.13;;
86084;SDS011;76694;53.530;50.016;2024-03-02T08:11:39;13.10;;;6.05;;
86084;SDS011;76694;53.530;50.016;2024-03-02T08:16:42;2.38;;;1.38;;
86084;SDS011;76694;53.530;50.016;2024-03-02T08:21:44;16.42;;;5.82;;
86084;SDS011;76694;53.530;50.016;2024-03-02T08:26:47;13.93;;;5.55;;
86084;SDS011;76694;53.530;50.016;2024-03-02T08:31:50;11.13;;;4.88;;
86084;SDS011;76694;53.530;50.016;2024-03-02T08:36:52;10.43;;;5.25;;
86084;SDS011;76694;53.530;50.016;2024-03-02T08:41:55;12.18;;;6.47;;
86084;SDS011;76694;53.530;50.016;2024-03-02T08:46:58;16.05;;;5.72;;
86084;SDS011;76694;53.530;50.016;2024-03-02T08:52:20;13.55;;;5.47;;
86084;SDS011;76694;53.530;50.016;2024-03-02T08:57:22;11.38;;;4.63;;
86084;SDS011;76694;53.530;50.016;2024-03-02T09:02:25;11.48;;;4.93;;
86084;SDS011;76694;53.530;50.016;2024-03-02T09:07:28;12.45;;;5.43;;
86084;SDS011;76694;53.530;50.016;2024-03-02T09:12:30;12.90;;;4.90;;
86084;SDS011;76694;53.530;50.016;2024-03-02T09:17:33;12.05;;;5.13;;
86084;SDS011;76694;53.530;50.016;2024-03-02T09:22:36;12.32;;;5.03;;
86084;SDS011;76694;53.530;50.016;2024-03-02T09:27:39;12.57;;;5.68;;
86084;SDS011;76694;53.530;50.016;2024-03-02T09:32:42;14.48;;;6.97;;
86084;SDS011;76694;53.530;50.016;2024-03-02T09:37:45;18.42;;;7.75;;
86084;SDS011;76694;53.530;50.016;2024-03-02T09:42:48;14.10;;;6.68;;
86084;SDS011;76694;53.530;50.016;2024-03-02T09:47:54;14.60;;;7.50;;
86084;SDS011;76694;53.530;50.016;2024-03-02T09:52:57;15.88;;;6.05;;
86084;SDS011;76694;53.530;50.016;2024-03-02T09:58:01;23.13;;;8.25;;
86084;SDS011;76694;53.530;50.016;2024-03-02T10:03:05;16.42;;;7.65;;
86084;SDS011;76694;53.530;50.016;2024-03-02T10:08:13;22.88;;;6.57;;
86084;SDS011;76694;53.530;50.016;2024-03-02T10:13:16;13.20;;;6.15;;
86084;SDS011;76694;53.530;50.016;2024-03-02T10:23:28;16.77;;;8.80;;
86084;SDS011;76694;53.530;50.016;2024-03-02T10:28:31;16.63;;;8.80;;
86084;SDS011;76694;53.530;50.016;2024-03-02T10:33:34;20.40;;;9.07;;
86084;SDS011;76694;53.530;50.016;2024-03-02T10:38:36;24.45;;;10.07;;
86084;SDS011;76694;53.530;50.016;2024-03-02T10:43:39;19.38;;;9.68;;
86084;SDS011;76694;53.530;50.016;2024-03-02T10:48:42;20.58;;;8.90;;
86084;SDS011;76694;53.530;50.016;2024-03-02T10:53:48;19.38;;;8.75;;
86084;SDS011;76694;53.530;50.016;2024-03-02T10:58:51;17.33;;;7.82;;
86084;SDS011;76694;53.530;50.016;2024-03-02T11:04:03;24.73;;;9.82;;
86084;SDS011;76694;53.530;50.016;2024-03-02T11:09:10;19.45;;;10.00;;
86084;SDS011;76694;53.530;50.016;2024-03-02T11:14:16;21.17;;;8.90;;
86084;SDS011;76694;53.530;50.016;2024-03-02T11:19:23;23.80;;;10.20;;
86084;SDS011;76694;53.530;50.016;2024-03-02T11:34:37;16.33;;;7.45;;
86084;SDS011;76694;53.530;50.016;2024-03-02T11:39:42;12.80;;;6.70;;
86084;SDS011;76694;53.530;50.016;2024-03-02T11:44:47;18.85;;;7.90;;
86084;SDS011;76694;53.530;50.016;2024-03-02T11:49:51;20.10;;;8.65;;
86084;SDS011;76694;53.530;50.016;2024-03-02T11:59:57;16.45;;;7.65;;
86084;SDS011;76694;53.530;50.016;2024-03-02T12:05:02;16.13;;;8.07;;
86084;SDS011;76694;53.530;50.016;2024-03-02T12:10:06;18.67;;;8.85;;
86084;SDS011;76694;53.530;50.016;2024-03-02T12:15:09;20.48;;;9.27;;
86084;SDS011;76694;53.530;50.016;2024-03-02T12:20:12;18.55;;;7.55;;
86084;SDS011;76694;53.530;50.016;2024-03-02T12:25:14;16.75;;;7.45;;
86084;SDS011;76694;53.530;50.016;2024-03-02T12:30:18;18.42;;;7.85;;
86084;SDS011;76694;53.530;50.016;2024-03-02T12:35:21;14.95;;;7.60;;
86084;SDS011;76694;53.530;50.016;2024-03-02T12:40:26;18.02;;;8.40;;
86084;SDS011;76694;53.530;50.016;2024-03-02T12:45:29;18.85;;;8.90;;
86084;SDS011;76694;53.530;50.016;2024-03-02T12:50:32;38.08;;;13.52;;
86084;SDS011;76694;53.530;50.016;2024-03-02T12:55:36;31.45;;;11.73;;
86084;SDS011;76694;53.530;50.016;2024-03-02T13:00:38;28.95;;;13.15;;
86084;SDS011;76694;53.530;50.016;2024-03-02T13:10:50;33.20;;;10.57;;
86084;SDS011;76694;53.530;50.016;2024-03-02T13:15:55;67.15;;;23.05;;
86084;SDS011;76694;53.530;50.016;2024-03-02T13:20:58;24.15;;;10.43;;
86084;SDS011;76694;53.530;50.016;2024-03-02T13:26:01;23.88;;;10.88;;
86084;SDS011;76694;53.530;50.016;2024-03-02T13:31:04;18.25;;;9.10;;
86084;SDS011;76694;53.530;50.016;2024-03-02T13:36:07;27.85;;;11.93;;
86084;SDS011;76694;53.530;50.016;2024-03-02T13:41:10;46.40;;;19.92;;
86084;SDS011;76694;53.530;50.016;2024-03-02T13:46:13;36.78;;;14.70;;
86084;SDS011;76694;53.530;50.016;2024-03-02T13:51:16;26.20;;;10.80;;
86084;SDS011;76694;53.530;50.016;2024-03-02T13:56:18;26.10;;;10.95;;
86084;SDS011;76694;53.530;50.016;2024-03-02T14:01:21;26.95;;;12.50;;
86084;SDS011;76694;53.530;50.016;2024-03-02T14:06:24;28.17;;;13.05;;
86084;SDS011;76694;53.530;50.016;2024-03-02T14:11:31;29.60;;;13.25;;
86084;SDS011;76694;53.530;50.016;2024-03-02T14:16:33;32.50;;;14.02;;
86084;SDS011;76694;53.530;50.016;2024-03-02T14:21:36;34.78;;;13.57;;
86084;SDS011;76694;53.530;50.016;2024-03-02T14:26:39;29.52;;;10.65;;
86084;SDS011;76694;53.530;50.016;2024-03-02T14:31:42;25.73;;;10.68;;
86084;SDS011;76694;53.530;50.016;2024-03-02T14:36:46;19.45;;;9.10;;
86084;SDS011;76694;53.530;50.016;2024-03-02T14:41:48;18.63;;;8.98;;
86084;SDS011;76694;53.530;50.016;2024-03-02T14:46:54;20.73;;;8.90;;
86084;SDS011;76694;53.530;50.016;2024-03-02T14:51:59;20.67;;;9.63;;
86084;SDS011;76694;53.530;50.016;2024-03-02T14:57:01;17.75;;;8.98;;
86084;SDS011;76694;53.530;50.016;2024-03-02T15:02:05;20.67;;;10.15;;
86084;SDS011;76694;53.530;50.016;2024-03-02T15:07:10;20.77;;;8.60;;
86084;SDS011;76694;53.530;50.016;2024-03-02T15:12:13;22.55;;;9.15;;
86084;SDS011;76694;53.530;50.016;2024-03-02T15:17:16;17.38;;;8.57;;
86084;SDS011;76694;53.530;50.016;2024-03-02T15:22:20;26.35;;;10.68;;
86084;SDS011;76694;53.530;50.016;2024-03-02T15:27:23;19.90;;;10.05;;
86084;SDS011;76694;53.530;50.016;2024-03-02T15:32:27;26.52;;;11.52;;
86084;SDS011;76694;53.530;50.016;2024-03-02T15:37:30;20.35;;;8.38;;
86084;SDS011;76694;53.530;50.016;2024-03-02T15:42:33;20.95;;;10.20;;
86084;SDS011;76694;53.530;50.016;2024-03-02T15:47:36;21.52;;;11.25;;
86084;SDS011;76694;53.530;50.016;2024-03-02T15:52:39;20.67;;;9.63;;
86084;SDS011;76694;53.530;50.016;2024-03-02T15:57:44;30.60;;;11.00;;
86084;SDS011;76694;53.530;50.016;2024-03-02T16:02:47;22.65;;;10.02;;
86084;SDS011;76694;53.530;50.016;2024-03-02T16:07:49;15.40;;;7.32;;
86084;SDS011;76694;53.530;50.016;2024-03-02T16:12:52;16.27;;;9.48;;
86084;SDS011;76694;53.530;50.016;2024-03-02T16:17:58;17.45;;;9.13;;
86084;SDS011;76694;53.530;50.016;2024-03-02T16:23:01;17.08;;;7.88;;
86084;SDS011;76694;53.530;50.016;2024-03-02T16:28:04;17.00;;;9.63;;
86084;SDS011;76694;53.530;50.016;2024-03-02T16:33:07;18.23;;;9.43;;
86084;SDS011;76694;53.530;50.016;2024-03-02T16:38:10;21.02;;;8.00;;
86084;SDS011;76694;53.530;50.016;2024-03-02T16:43:12;17.85;;;8.32;;
86084;SDS011;76694;53.530;50.016;2024-03-02T16:48:15;20.80;;;10.30;;
86084;SDS011;76694;53.530;50.016;2024-03-02T16:53:19;23.15;;;8.30;;
86084;SDS011;76694;53.530;50.016;2024-03-02T16:58:23;18.80;;;8.50;;
86084;SDS011;76694;53.530;50.016;2024-03-02T17:03:27;18.00;;;7.95;;
86084;SDS011;76694;53.530;50.016;2024-03-02T17:08:31;22.40;;;9.57;;
86084;SDS011;76694;53.530;50.016;2024-03-02T17:13:35;14.63;;;7.70;;
86084;SDS011;76694;53.530;50.016;2024-03-02T17:18:39;22.00;;;7.53;;
86084;SDS011;76694;53.530;50.016;2024-03-02T17:23:42;13.73;;;7.43;;
86084;SDS011;76694;53.530;50.016;2024-03-02T17:28:45;18.35;;;8.20;;
86084;SDS011;76694;53.530;50.016;2024-03-02T17:33:54;23.85;;;9.75;;
86084;SDS011;76694;53.530;50.016;2024-03-02T17:38:56;15.32;;;6.85;;
86084;SDS011;76694;53.530;50.016;2024-03-02T17:44:00;11.65;;;5.35;;
86084;SDS011;76694;53.530;50.016;2024-03-02T17:54:27;14.63;;;7.15;;
86084;SDS011;76694;53.530;50.016;2024-03-02T17:59:30;14.40;;;5.90;;
86084;SDS011;76694;53.530;50.016;2024-03-02T18:04:32;18.50;;;8.02;;
86084;SDS011;76694;53.530;50.016;2024-03-02T18:09:37;16.25;;;7.45;;
86084;SDS011;76694;53.530;50.016;2024-03-02T18:14:39;11.30;;;6.55;;
86084;SDS011;76694;53.530;50.016;2024-03-02T18:19:42;10.80;;;8.00;;
86084;SDS011;76694;53.530;50.016;2024-03-02T18:24:45;10.48;;;4.85;;
86084;SDS011;76694;53.530;50.016;2024-03-02T18:29:49;16.67;;;9.15;;
86084;SDS011;76694;53.530;50.016;2024-03-02T18:34:51;13.88;;;5.25;;
86084;SDS011;76694;53.530;50.016;2024-03-02T18:39:54;18.23;;;6.75;;
86084;SDS011;76694;53.530;50.016;2024-03-02T18:44:57;14.63;;;6.28;;
86084;SDS011;76694;53.530;50.016;2024-03-02T18:50:02;13.68;;;6.43;;
86084;SDS011;76694;53.530;50.016;2024-03-02T18:55:10;8.98;;;3.63;;
86084;SDS011;76694;53.530;50.016;2024-03-02T19:00:16;26.75;;;9.55;;
86084;SDS011;76694;53.530;50.016;2024-03-02T19:05:19;21.45;;;8.43;;
86084;SDS011;76694;53.530;50.016;2024-03-02T19:10:22;5.55;;;3.95;;
86084;SDS011;76694;53.530;50.016;2024-03-02T19:15:25;5.65;;;4.40;;
86084;SDS011;76694;53.530;50.016;2024-03-02T19:20:28;6.88;;;3.92;;
86084;SDS011;76694;53.530;50.016;2024-03-02T19:25:30;14.27;;;7.05;;
86084;SDS011;76694;53.530;50.016;2024-03-02T19:30:33;20.15;;;6.80;;
86084;SDS011;76694;53.530;50.016;2024-03-02T19:35:35;12.45;;;5.88;;
86084;SDS011;76694;53.530;50.016;2024-03-02T19:40:38;5.95;;;2.63;;
86084;SDS011;76694;53.530;50.016;2024-03-02T19:45:41;11.77;;;7.50;;
86084;SDS011;76694;53.530;50.016;2024-03-02T19:50:44;5.05;;;3.63;;
86084;SDS011;76694;53.530;50.016;2024-03-02T19:55:47;10.25;;;4.40;;
86084;SDS011;76694;53.530;50.016;2024-03-02T20:00:50;11.90;;;5.50;;
86084;SDS011;76694;53.530;50.016;2024-03-02T20:05:52;15.30;;;5.68;;
86084;SDS011;76694;53.530;50.016;2024-03-02T20:10:55;9.10;;;4.22;;
86084;SDS011;76694;53.530;50.016;2024-03-02T20:15:58;6.43;;;4.22;;
86084;SDS011;76694;53.530;50.016;2024-03-02T20:21:01;6.07;;;4.63;;
86084;SDS011;76694;53.530;50.016;2024-03-02T20:26:03;7.47;;;4.53;;
86084;SDS011;76694;53.530;50.016;2024-03-02T20:31:07;9.48;;;4.28;;
86084;SDS011;76694;53.530;50.016;2024-03-02T20:36:14;9.30;;;3.67;;
86084;SDS011;76694;53.530;50.016;2024-03-02T20:41:17;10.80;;;4.22;;
86084;SDS011;76694;53.530;50.016;2024-03-02T20:46:22;4.80;;;4.32;;
86084;SDS011;76694;53.530;50.016;2024-03-02T20:51:24;10.18;;;3.88;;
86084;SDS011;76694;53.530;50.016;2024-03-02T20:56:33;5.82;;;2.92;;
86084;SDS011;76694;53.530;50.016;2024-03-02T21:01:46;4.07;;;3.17;;
86084;SDS011;76694;53.530;50.016;2024-03-02T21:06:50;3.90;;;3.53;;
86084;SDS011;76694;53.530;50.016;2024-03-02T21:11:52;9.63;;;4.07;;
86084;SDS011;76694;53.530;50.016;2024-03-02T21:16:55;11.85;;;5.65;;
86084;SDS011;76694;53.530;50.016;2024-03-02T21:21:57;5.13;;;3.15;;
86084;SDS011;76694;53.530;50.016;2024-03-02T21:27:00;2.28;;;1.92;;
86084;SDS011;76694;53.530;50.016;2024-03-02T21:32:03;6.93;;;4.35;;
86084;SDS011;76694;53.530;50.016;2024-03-02T21:37:07;3.95;;;3.15;;
86084;SDS011;76694;53.530;50.016;2024-03-02T21:42:10;4.90;;;3.65;;
86084;SDS011;76694;53.530;50.016;2024-03-02T21:47:13;6.00;;;2.83;;
86084;SDS011;76694;53.530;50.016;2024-03-02T21:52:18;2.47;;;2.28;;
86084;SDS011;76694;53.530;50.016;2024-03-02T21:57:21;5.35;;;4.32;;
86084;SDS011;76694;53.530;50.016;2024-03-02T22:02:23;3.80;;;1.75;;
86084;SDS011;76694;53.530;50.016;2024-03-02T22:07:26;5.93;;;4.30;;
86084;SDS011;76694;53.530;50.016;2024-03-02T22:12:28;5.22;;;3.97;;
86084;SDS011;76694;53.530;50.016;2024-03-02T22:17:31;12.70;;;5.28;;
86084;SDS011;76694;53.530;50.016;2024-03-02T22:22:33;6.43;;;3.60;;
86084;SDS011;76694;53.530;50.016;2024-03-02T22:27:36;18.08;;;4.57;;
86084;SDS011;76694;53.530;50.016;2024-03-02T22:32:39;6.03;;;4.00;;
86084;SDS011;76694;53.530;50.016;2024-03-02T22:37:42;5.32;;;4.53;;
86084;SDS011;76694;53.530;50.016;2024-03-02T22:42:45;2.97;;;1.83;;
86084;SDS011;76694;53.530;50.016;2024-03-02T22:47:47;1.35;;;1.25;;
86084;SDS011;76694;53.530;50.016;2024-03-02T22:52:50;3.40;;;2.95;;
86084;SDS011;76694;53.530;50.016;2024-03-02T22:57:52;12.15;;;4.70;;
86084;SDS011;76694;53.530;50.016;2024-03-02T23:02:58;1.95;;;1.58;;
86084;SDS011;76694;53.530;50.016;2024-03-02T23:08:00;3.95;;;3.00;;
86084;SDS011;76694;53.530;50.016;2024-03-02T23:13:03;3.40;;;2.60;;
86084;SDS011;76694;53.530;50.016;2024-03-02T23:18:06;7.97;;;2.63;;
86084;SDS011;76694;53.530;50.016;2024-03-02T23:23:08;5.88;;;2.85;;
86084;SDS011;76694;53.530;50.016;2024-03-02T23:28:11;3.70;;;3.35;;
86084;SDS011;76694;53.530;50.016;2024-03-02T23:33:14;3.47;;;3.17;;
86084;SDS011;76694;53.530;50.016;2024-03-02T23:38:16;1.88;;;1.73;;
86084;SDS011;76694;53.530;50.016;2024-03-02T23:43:19;6.68;;;3.47;;
86084;SDS011;76694;53.530;50.016;2024-03-02T23:48:21;4.93;;;2.65;;
86084;SDS011;76694;53.530;50.016;2024-03-02T23:53:24;2.90;;;2.53;;
86084;SDS011;76694;53.530;50.016;2024-03-02T23:58:27;5.38;;;2.88;;
